Time;durP1;ratioP1;P1;durP2;ratioP2;P2;SDS_P1;SDS_P2;PMS_P1;PMS_P2;Temp;Humidity;BMP_temperature;BMP_pressure;BME280_temperature;BME280_humidity;BME280_pressure;Samples;Min_cycle;Max_cycle;Signal;HPM_P1;HPM_P2
2021/10/12 00:00:30;;;;;;;17.38;4.40;;;;;;;;;;5035283;28;20055;-87
2021/10/12 00:02:55;;;;;;;18.38;4.70;;;;;;;;;;5035143;28;20013;-87
2021/10/12 00:05:21;;;;;;;20.95;4.75;;;;;;;;;;5057882;28;20033;-86
2021/10/12 00:07:46;;;;;;;20.15;4.47;;;;;;;;;;5055419;28;20500;-86
2021/10/12 00:10:12;;;;;;;22.95;4.32;;;;;;;;;;5035361;28;20416;-86
2021/10/12 00:12:37;;;;;;;20.10;4.70;;;;;;;;;;5031910;28;20024;-86
2021/10/12 00:15:03;;;;;;;18.30;4.65;;;;;;;;;;5050709;28;20025;-87
2021/10/12 00:17:28;;;;;;;17.92;3.60;;;;;;;;;;5032794;28;20135;-86
2021/10/12 00:19:53;;;;;;;19.15;3.90;;;;;;;;;;5032348;28;20013;-86
2021/10/12 00:22:19;;;;;;;19.35;5.60;;;;;;;;;;5032038;28;20029;-87
2021/10/12 00:24:44;;;;;;;15.65;3.55;;;;;;;;;;5064270;22;20047;-69
2021/10/12 00:27:09;;;;;;;15.97;3.67;;;;;;;;;;5050956;28;20051;-69
2021/10/12 00:29:34;;;;;;;17.77;4.63;;;;;;;;;;5050921;28;20276;-69
2021/10/12 00:32:00;;;;;;;24.87;5.33;;;;;;;;;;5051445;28;20048;-69
2021/10/12 00:34:25;;;;;;;12.10;4.22;;;;;;;;;;5046243;28;20354;-69
2021/10/12 00:36:50;;;;;;;18.38;4.32;;;;;;;;;;5026241;28;20022;-69
2021/10/12 00:39:15;;;;;;;26.00;5.57;;;;;;;;;;5012066;28;20018;-69
2021/10/12 00:41:41;;;;;;;18.63;4.95;;;;;;;;;;5011672;28;20355;-69
2021/10/12 00:44:06;;;;;;;13.55;4.00;;;;;;;;;;5026133;28;20027;-69
2021/10/12 00:46:32;;;;;;;20.02;5.13;;;;;;;;;;5031524;28;20473;-69
2021/10/12 00:48:57;;;;;;;13.98;4.25;;;;;;;;;;5031676;28;20021;-69
2021/10/12 00:51:23;;;;;;;25.58;4.70;;;;;;;;;;5031377;28;20032;-69
2021/10/12 00:53:48;;;;;;;23.25;4.05;;;;;;;;;;5029165;28;20064;-69
2021/10/12 00:56:13;;;;;;;15.70;4.50;;;;;;;;;;5030454;28;20021;-69
2021/10/12 00:58:39;;;;;;;15.13;5.75;;;;;;;;;;5011420;28;20356;-69
2021/10/12 01:01:05;;;;;;;16.17;4.20;;;;;;;;;;5011509;28;20033;-69
2021/10/12 01:03:30;;;;;;;26.75;4.82;;;;;;;;;;5010832;28;20017;-69
2021/10/12 01:05:56;;;;;;;20.30;4.75;;;;;;;;;;5024054;28;20033;-69
2021/10/12 01:08:21;;;;;;;20.27;4.60;;;;;;;;;;5031035;28;20021;-69
2021/10/12 01:10:46;;;;;;;16.45;3.85;;;;;;;;;;5030878;28;20029;-68
2021/10/12 01:13:11;;;;;;;22.67;3.83;;;;;;;;;;5015054;28;20025;-69
2021/10/12 01:15:37;;;;;;;24.65;4.50;;;;;;;;;;5011053;28;20033;-69
2021/10/12 01:18:02;;;;;;;15.13;3.77;;;;;;;;;;5011152;28;20029;-68
2021/10/12 01:20:34;;;;;;;19.17;4.20;;;;;;;;;;5013099;28;20798;-69
2021/10/12 01:22:59;;;;;;;14.15;4.60;;;;;;;;;;5010648;28;20307;-69
2021/10/12 01:25:24;;;;;;;11.97;4.60;;;;;;;;;;5010919;28;20474;-69
2021/10/12 01:27:49;;;;;;;12.27;4.35;;;;;;;;;;5030500;28;20358;-69
2021/10/12 01:30:15;;;;;;;15.80;3.63;;;;;;;;;;5031083;28;20025;-69
2021/10/12 01:32:41;;;;;;;12.05;3.60;;;;;;;;;;5030401;28;20025;-69
2021/10/12 01:35:06;;;;;;;25.70;4.55;;;;;;;;;;5030706;28;20100;-69
2021/10/12 01:37:31;;;;;;;20.45;3.85;;;;;;;;;;5028690;28;20538;-69
2021/10/12 01:39:57;;;;;;;21.13;4.05;;;;;;;;;;5029892;28;20026;-69
2021/10/12 01:42:22;;;;;;;14.05;3.05;;;;;;;;;;5030534;28;20024;-69
2021/10/12 01:44:47;;;;;;;19.50;3.72;;;;;;;;;;5030519;28;20032;-69
2021/10/12 01:47:13;;;;;;;17.47;3.23;;;;;;;;;;5030770;28;20026;-69
2021/10/12 01:49:38;;;;;;;17.13;4.23;;;;;;;;;;5030567;28;20272;-69
2021/10/12 01:52:03;;;;;;;18.70;4.60;;;;;;;;;;5028545;28;20562;-69
2021/10/12 01:54:28;;;;;;;12.75;3.38;;;;;;;;;;5029341;28;20660;-69
2021/10/12 01:56:54;;;;;;;14.48;4.20;;;;;;;;;;5030230;28;20017;-69
2021/10/12 01:59:19;;;;;;;21.98;5.95;;;;;;;;;;5030416;28;20059;-68
2021/10/12 02:01:44;;;;;;;20.92;5.22;;;;;;;;;;5029977;28;20014;-68
2021/10/12 02:04:10;;;;;;;19.67;6.13;;;;;;;;;;5029790;28;20033;-68
2021/10/12 02:06:35;;;;;;;17.33;4.60;;;;;;;;;;5010445;28;20512;-69
2021/10/12 02:09:00;;;;;;;21.45;6.32;;;;;;;;;;5017379;28;20017;-69
2021/10/12 02:11:25;;;;;;;27.30;6.15;;;;;;;;;;5030514;28;20401;-69
2021/10/12 02:13:51;;;;;;;23.90;6.63;;;;;;;;;;5030060;28;20013;-69
2021/10/12 02:16:16;;;;;;;25.57;6.57;;;;;;;;;;5030603;28;20287;-69
2021/10/12 02:18:41;;;;;;;21.58;7.22;;;;;;;;;;5029943;28;20627;-68
2021/10/12 02:21:06;;;;;;;21.73;7.30;;;;;;;;;;5028504;28;20501;-69
2021/10/12 02:23:31;;;;;;;26.10;8.83;;;;;;;;;;5028536;28;20268;-69
2021/10/12 02:25:57;;;;;;;26.13;8.02;;;;;;;;;;5030264;28;20330;-69
2021/10/12 02:28:22;;;;;;;25.90;7.70;;;;;;;;;;5030148;28;20112;-68
2021/10/12 02:30:47;;;;;;;26.53;7.83;;;;;;;;;;5030188;28;20271;-67
2021/10/12 02:33:12;;;;;;;30.92;8.07;;;;;;;;;;5030537;28;20716;-68
2021/10/12 02:35:38;;;;;;;24.83;7.82;;;;;;;;;;5033769;28;20060;-68
2021/10/12 02:38:03;;;;;;;32.45;9.15;;;;;;;;;;5028036;28;20026;-68
2021/10/12 02:40:28;;;;;;;28.00;10.20;;;;;;;;;;5033747;28;20037;-68
2021/10/12 02:42:53;;;;;;;15.32;8.05;;;;;;;;;;5023705;28;20264;-68
2021/10/12 02:45:19;;;;;;;23.45;8.55;;;;;;;;;;5030251;28;20544;-68
2021/10/12 02:47:44;;;;;;;27.15;9.35;;;;;;;;;;5033243;28;20436;-68
2021/10/12 02:50:09;;;;;;;31.55;9.32;;;;;;;;;;5018644;28;20030;-68
2021/10/12 02:52:35;;;;;;;27.10;8.02;;;;;;;;;;5013513;28;20026;-68
2021/10/12 02:55:01;;;;;;;28.92;9.48;;;;;;;;;;5018637;28;20022;-68
2021/10/12 02:57:26;;;;;;;24.38;9.15;;;;;;;;;;5033568;28;20052;-68
2021/10/12 02:59:51;;;;;;;30.02;9.85;;;;;;;;;;5033531;28;20017;-68
2021/10/12 03:02:16;;;;;;;31.87;9.53;;;;;;;;;;5033330;28;20049;-68
2021/10/12 03:04:41;;;;;;;24.25;8.80;;;;;;;;;;5032366;28;20268;-68
2021/10/12 03:07:07;;;;;;;24.92;9.50;;;;;;;;;;5033578;28;20028;-68
2021/10/12 03:09:32;;;;;;;24.35;9.63;;;;;;;;;;5033381;28;20032;-68
2021/10/12 03:11:57;;;;;;;24.65;8.88;;;;;;;;;;5031508;28;20490;-68
2021/10/12 03:14:22;;;;;;;35.15;10.25;;;;;;;;;;5033047;28;20053;-68
2021/10/12 03:16:47;;;;;;;25.23;9.88;;;;;;;;;;5033016;28;20057;-68
2021/10/12 03:19:14;;;;;;;26.90;8.47;;;;;;;;;;5032252;28;20065;-67
2021/10/12 03:21:47;;;;;;;30.67;9.88;;;;;;;;;;5032072;28;20257;-68
2021/10/12 03:24:13;;;;;;;31.02;10.02;;;;;;;;;;5032571;28;20552;-68
2021/10/12 03:26:38;;;;;;;24.00;9.07;;;;;;;;;;5033098;28;20022;-68
2021/10/12 03:29:05;;;;;;;31.87;10.63;;;;;;;;;;5018365;28;20033;-68
2021/10/12 03:31:30;;;;;;;36.97;10.48;;;;;;;;;;5013198;28;20264;-68
2021/10/12 03:33:55;;;;;;;37.78;10.55;;;;;;;;;;5012570;28;20044;-67
2021/10/12 03:36:20;;;;;;;34.60;10.47;;;;;;;;;;5013265;28;20498;-68
2021/10/12 03:38:45;;;;;;;37.20;11.75;;;;;;;;;;5013281;28;20280;-67
2021/10/12 03:41:11;;;;;;;35.72;11.88;;;;;;;;;;5012832;28;20084;-68
2021/10/12 03:43:36;;;;;;;25.35;10.27;;;;;;;;;;5012156;28;20453;-68
2021/10/12 03:46:02;;;;;;;31.35;11.35;;;;;;;;;;5029109;28;20025;-68
2021/10/12 03:48:27;;;;;;;26.05;10.57;;;;;;;;;;5031253;28;20112;-68
2021/10/12 03:50:52;;;;;;;31.70;11.98;;;;;;;;;;5032678;28;20413;-68
2021/10/12 03:53:18;;;;;;;38.30;12.80;;;;;;;;;;5031951;28;20031;-68
2021/10/12 03:55:43;;;;;;;31.95;12.00;;;;;;;;;;5032511;28;20154;-68
2021/10/12 03:58:08;;;;;;;30.57;11.47;;;;;;;;;;5032229;28;20112;-68
2021/10/12 04:00:33;;;;;;;33.65;12.98;;;;;;;;;;5026849;28;20320;-68
2021/10/12 04:02:59;;;;;;;29.55;11.98;;;;;;;;;;5025574;28;20022;-68
2021/10/12 04:05:24;;;;;;;48.03;14.65;;;;;;;;;;5032359;28;20033;-68
2021/10/12 04:07:49;;;;;;;40.83;15.80;;;;;;;;;;5032119;28;20457;-68
2021/10/12 04:10:15;;;;;;;44.03;13.45;;;;;;;;;;5032085;28;20025;-68
2021/10/12 04:12:40;;;;;;;41.45;13.88;;;;;;;;;;5031780;28;20381;-68
2021/10/12 04:15:06;;;;;;;34.70;14.30;;;;;;;;;;5031200;28;20022;-68
2021/10/12 04:17:31;;;;;;;44.78;15.18;;;;;;;;;;4995885;28;20068;-68
2021/10/12 04:19:56;;;;;;;40.77;14.90;;;;;;;;;;5012327;28;20398;-68
2021/10/12 04:22:21;;;;;;;36.03;15.52;;;;;;;;;;5012237;28;20267;-68
2021/10/12 04:24:48;;;;;;;35.30;14.15;;;;;;;;;;5012278;28;20036;-68
2021/10/12 04:27:13;;;;;;;44.85;13.85;;;;;;;;;;5011937;28;20025;-68
2021/10/12 04:29:38;;;;;;;37.87;14.37;;;;;;;;;;5011776;28;20226;-68
2021/10/12 04:32:03;;;;;;;37.28;15.07;;;;;;;;;;5013956;28;20322;-68
2021/10/12 04:34:29;;;;;;;34.72;13.13;;;;;;;;;;5031629;28;20485;-68
2021/10/12 04:36:55;;;;;;;34.33;13.70;;;;;;;;;;5031444;28;20021;-68
2021/10/12 04:39:20;;;;;;;32.95;14.68;;;;;;;;;;5031465;28;20021;-68
2021/10/12 04:41:45;;;;;;;43.28;14.85;;;;;;;;;;5031569;28;20018;-68
2021/10/12 04:44:11;;;;;;;38.63;13.98;;;;;;;;;;5030214;28;20120;-68
2021/10/12 04:46:39;;;;;;;36.90;14.70;;;;;;;;;;5030135;28;20017;-68
2021/10/12 04:49:05;;;;;;;32.33;13.00;;;;;;;;;;5025015;28;20072;-68
2021/10/12 04:51:30;;;;;;;32.83;14.07;;;;;;;;;;5011480;28;20025;-68
2021/10/12 04:53:55;;;;;;;46.50;15.47;;;;;;;;;;5011097;28;20021;-68
2021/10/12 04:56:20;;;;;;;36.35;15.95;;;;;;;;;;5011378;28;20288;-68
2021/10/12 04:58:45;;;;;;;42.15;16.13;;;;;;;;;;5011525;28;20120;-68
2021/10/12 05:01:10;;;;;;;47.13;17.57;;;;;;;;;;5011548;28;20064;-68
2021/10/12 05:03:36;;;;;;;46.23;17.70;;;;;;;;;;5011226;28;20258;-68
2021/10/12 05:06:01;;;;;;;39.90;17.40;;;;;;;;;;5012213;28;20257;-68
2021/10/12 05:08:26;;;;;;;50.00;18.47;;;;;;;;;;5011417;28;20347;-68
2021/10/12 05:10:51;;;;;;;42.67;16.33;;;;;;;;;;5011145;28;20610;-68
2021/10/12 05:13:16;;;;;;;41.23;14.43;;;;;;;;;;5010913;28;20273;-68
2021/10/12 05:15:46;;;;;;;54.38;18.08;;;;;;;;;;5011211;28;20600;-68
2021/10/12 05:18:17;;;;;;;45.72;17.90;;;;;;;;;;5011001;28;20026;-68
2021/10/12 05:20:42;;;;;;;55.42;18.23;;;;;;;;;;5011177;28;20101;-68
2021/10/12 05:23:08;;;;;;;47.03;17.05;;;;;;;;;;5011574;28;20097;-68
2021/10/12 05:25:33;;;;;;;45.72;17.20;;;;;;;;;;5011836;28;20101;-68
2021/10/12 05:27:58;;;;;;;48.33;17.60;;;;;;;;;;5011261;28;20097;-68
2021/10/12 05:30:24;;;;;;;61.25;20.48;;;;;;;;;;5030746;28;20721;-68
2021/10/12 05:32:50;;;;;;;52.92;19.08;;;;;;;;;;5030395;28;20017;-68
2021/10/12 05:35:15;;;;;;;56.83;20.13;;;;;;;;;;5030580;28;20025;-68
2021/10/12 05:37:40;;;;;;;42.90;16.87;;;;;;;;;;5030761;28;20022;-69
2021/10/12 05:40:06;;;;;;;46.13;17.07;;;;;;;;;;5027921;28;20310;-69
2021/10/12 05:42:31;;;;;;;43.90;15.65;;;;;;;;;;5013898;28;20269;-68
2021/10/12 05:44:56;;;;;;;41.00;15.93;;;;;;;;;;5010912;28;20101;-68
2021/10/12 05:47:21;;;;;;;40.73;15.03;;;;;;;;;;5010877;28;20026;-68
2021/10/12 05:49:46;;;;;;;38.13;13.65;;;;;;;;;;5010978;28;20256;-68
2021/10/12 05:52:15;;;;;;;42.53;12.73;;;;;;;;;;5021846;28;20041;-68
2021/10/12 05:54:47;;;;;;;48.67;14.80;;;;;;;;;;5010664;28;20117;-68
2021/10/12 05:57:19;;;;;;;46.20;12.77;;;;;;;;;;5011561;28;20322;-68
2021/10/12 05:59:45;;;;;;;44.75;12.60;;;;;;;;;;5010640;28;20478;-68
2021/10/12 06:02:10;;;;;;;36.33;11.55;;;;;;;;;;5010068;28;20026;-68
2021/10/12 06:04:35;;;;;;;35.27;10.87;;;;;;;;;;5010530;28;20018;-68
2021/10/12 06:07:01;;;;;;;39.43;11.63;;;;;;;;;;5010493;28;20257;-68
2021/10/12 06:09:26;;;;;;;32.50;10.73;;;;;;;;;;5014879;28;20400;-68
2021/10/12 06:11:52;;;;;;;37.15;9.40;;;;;;;;;;5014293;28;20092;-69
2021/10/12 06:14:17;;;;;;;29.17;9.87;;;;;;;;;;5067046;22;20554;-68
2021/10/12 06:16:42;;;;;;;43.83;10.20;;;;;;;;;;5067350;28;20258;-68
2021/10/12 06:19:07;;;;;;;35.33;9.80;;;;;;;;;;5074015;28;20028;-67
2021/10/12 06:21:32;;;;;;;37.67;9.23;;;;;;;;;;5069738;28;20013;-68
2021/10/12 06:23:58;;;;;;;33.78;9.73;;;;;;;;;;5064582;28;20275;-67
2021/10/12 06:26:23;;;;;;;32.42;10.65;;;;;;;;;;5074268;28;20111;-68
2021/10/12 06:28:48;;;;;;;24.48;8.85;;;;;;;;;;5074237;28;20526;-66
2021/10/12 06:31:13;;;;;;;33.97;10.57;;;;;;;;;;5073820;28;20027;-65
2021/10/12 06:33:39;;;;;;;34.00;10.07;;;;;;;;;;5073737;28;20263;-66
2021/10/12 06:36:04;;;;;;;33.43;10.50;;;;;;;;;;5073732;28;20028;-66
2021/10/12 06:38:29;;;;;;;33.72;11.32;;;;;;;;;;5076474;28;20275;-65
2021/10/12 06:40:54;;;;;;;26.83;10.38;;;;;;;;;;5073807;28;20028;-67
2021/10/12 06:43:20;;;;;;;43.90;11.80;;;;;;;;;;5086169;28;20024;-63
2021/10/12 06:45:45;;;;;;;33.33;12.23;;;;;;;;;;5076788;28;20066;-63
2021/10/12 06:48:10;;;;;;;29.85;10.25;;;;;;;;;;5073554;28;20028;-64
2021/10/12 06:50:35;;;;;;;29.45;11.25;;;;;;;;;;5073670;28;20021;-65
2021/10/12 06:53:01;;;;;;;24.80;10.20;;;;;;;;;;5072682;28;20017;-65
2021/10/12 06:55:27;;;;;;;40.22;10.98;;;;;;;;;;5083533;28;20028;-65
2021/10/12 06:57:52;;;;;;;32.13;11.30;;;;;;;;;;5093574;28;20024;-65
2021/10/12 07:00:17;;;;;;;30.80;9.23;;;;;;;;;;5093140;28;20024;-64
2021/10/12 07:02:44;;;;;;;29.15;9.20;;;;;;;;;;5069535;28;20276;-65
2021/10/12 07:05:09;;;;;;;22.83;9.18;;;;;;;;;;5053085;28;20031;-66
2021/10/12 07:07:34;;;;;;;24.52;9.50;;;;;;;;;;5053553;28;20029;-66
2021/10/12 07:10:00;;;;;;;34.95;10.07;;;;;;;;;;5053463;28;20024;-66
2021/10/12 07:12:25;;;;;;;32.20;10.57;;;;;;;;;;5084526;28;20032;-65
2021/10/12 07:14:50;;;;;;;28.67;8.00;;;;;;;;;;5093211;28;20476;-66
2021/10/12 07:17:16;;;;;;;27.58;7.57;;;;;;;;;;5074656;28;20032;-66
2021/10/12 07:19:41;;;;;;;30.20;9.27;;;;;;;;;;5063776;28;20102;-66
2021/10/12 07:22:06;;;;;;;38.13;14.48;;;;;;;;;;5062123;28;20271;-64
2021/10/12 07:24:31;;;;;;;38.90;15.97;;;;;;;;;;5070563;28;20351;-63
2021/10/12 07:26:56;;;;;;;34.40;14.48;;;;;;;;;;5072669;28;20278;-63
2021/10/12 07:29:21;;;;;;;37.78;13.98;;;;;;;;;;5087314;28;20024;-65
2021/10/12 07:31:47;;;;;;;44.75;16.42;;;;;;;;;;5078225;28;20036;-65
2021/10/12 07:34:12;;;;;;;37.88;16.73;;;;;;;;;;5072350;28;20512;-64
2021/10/12 07:36:38;;;;;;;47.92;18.50;;;;;;;;;;5083502;28;20024;-65
2021/10/12 07:39:04;;;;;;;46.17;16.83;;;;;;;;;;5092779;28;20012;-67
2021/10/12 07:41:29;;;;;;;34.40;16.40;;;;;;;;;;5092989;28;20057;-66
2021/10/12 07:43:54;;;;;;;52.67;17.40;;;;;;;;;;5074844;28;20522;-68
2021/10/12 07:46:19;;;;;;;61.85;19.33;;;;;;;;;;5077837;28;20028;-65
2021/10/12 07:48:44;;;;;;;42.05;17.10;;;;;;;;;;5052732;28;20115;-67
2021/10/12 07:51:10;;;;;;;38.20;12.68;;;;;;;;;;5052528;28;20521;-65
2021/10/12 07:53:37;;;;;;;37.72;11.57;;;;;;;;;;5052169;28;20082;-66
2021/10/12 07:56:07;;;;;;;41.13;11.00;;;;;;;;;;5052003;28;20458;-63
2021/10/12 07:58:32;;;;;;;33.95;11.57;;;;;;;;;;5056400;28;20258;-63
2021/10/12 08:00:58;;;;;;;27.70;9.93;;;;;;;;;;5070474;28;20423;-65
2021/10/12 08:03:23;;;;;;;29.73;9.13;;;;;;;;;;5052016;28;20339;-67
2021/10/12 08:05:48;;;;;;;28.90;11.40;;;;;;;;;;5052207;28;20021;-66
2021/10/12 08:08:13;;;;;;;34.08;11.02;;;;;;;;;;5052387;28;20264;-66
2021/10/12 08:10:39;;;;;;;26.95;11.18;;;;;;;;;;5052427;28;20020;-66
2021/10/12 08:13:06;;;;;;;33.40;13.07;;;;;;;;;;5057472;28;20395;-67
2021/10/12 08:15:32;;;;;;;32.35;11.45;;;;;;;;;;5081004;28;20473;-65
2021/10/12 08:17:58;;;;;;;46.60;13.40;;;;;;;;;;5051935;28;20028;-65
2021/10/12 08:20:23;;;;;;;43.50;14.30;;;;;;;;;;5051982;28;20079;-66
2021/10/12 08:22:49;;;;;;;44.78;17.20;;;;;;;;;;5051681;28;20433;-67
2021/10/12 08:25:14;;;;;;;48.20;20.30;;;;;;;;;;5051591;28;20534;-67
2021/10/12 08:27:39;;;;;;;40.20;22.43;;;;;;;;;;5051875;28;20389;-67
2021/10/12 08:30:05;;;;;;;56.17;22.10;;;;;;;;;;5061412;28;20323;-67
2021/10/12 08:32:31;;;;;;;51.35;20.15;;;;;;;;;;5091856;28;20065;-67
2021/10/12 08:34:56;;;;;;;46.67;21.83;;;;;;;;;;5092022;28;20027;-66
2021/10/12 08:37:21;;;;;;;54.22;23.58;;;;;;;;;;5091950;28;20039;-67
2021/10/12 08:39:46;;;;;;;44.70;21.95;;;;;;;;;;5091776;28;20519;-65
2021/10/12 08:42:21;;;;;;;50.53;20.85;;;;;;;;;;5077095;28;20013;-67
2021/10/12 08:44:47;;;;;;;43.42;21.92;;;;;;;;;;5056316;28;20023;-66
2021/10/12 08:47:13;;;;;;;41.28;20.45;;;;;;;;;;5051462;28;20134;-66
2021/10/12 08:49:38;;;;;;;47.13;20.70;;;;;;;;;;5073149;28;20132;-67
2021/10/12 08:52:04;;;;;;;47.13;21.38;;;;;;;;;;5058099;28;20488;-67
2021/10/12 08:54:29;;;;;;;46.78;20.63;;;;;;;;;;5071243;28;20081;-68
2021/10/12 08:56:54;;;;;;;42.55;16.27;;;;;;;;;;5071101;28;20078;-66
2021/10/12 08:59:19;;;;;;;37.92;16.23;;;;;;;;;;5068826;28;20102;-65
2021/10/12 09:01:58;;;;;;;42.23;15.57;;;;;;;;;;5057263;28;20070;-67
2021/10/12 09:04:24;;;;;;;35.97;15.15;;;;;;;;;;5070911;28;20310;-65
2021/10/12 09:06:54;;;;;;;32.47;15.43;;;;;;;;;;5074718;28;20012;-66
2021/10/12 09:09:32;;;;;;;31.40;14.52;;;;;;;;;;5068383;28;20391;-66
2021/10/12 09:11:57;;;;;;;30.70;13.88;;;;;;;;;;5070231;28;20199;-66
2021/10/12 09:14:22;;;;;;;31.23;13.33;;;;;;;;;;5070959;28;20074;-64
2021/10/12 09:16:47;;;;;;;32.60;13.53;;;;;;;;;;5071019;28;20614;-68
2021/10/12 09:19:16;;;;;;;26.52;12.73;;;;;;;;;;5070806;28;20855;-68
2021/10/12 09:21:46;;;;;;;31.70;13.38;;;;;;;;;;5090456;28;20614;-68
2021/10/12 09:24:15;;;;;;;32.42;12.60;;;;;;;;;;5050291;28;20028;-65
2021/10/12 09:26:41;;;;;;;28.65;12.55;;;;;;;;;;5050810;28;20025;-66
2021/10/12 09:29:11;;;;;;;31.25;14.45;;;;;;;;;;5050485;28;20037;-65
2021/10/12 09:31:41;;;;;;;25.52;13.18;;;;;;;;;;5050819;28;20406;-67
2021/10/12 09:34:07;;;;;;;23.95;11.48;;;;;;;;;;5058032;28;20508;-67
2021/10/12 09:36:36;;;;;;;30.08;12.27;;;;;;;;;;5083795;28;20559;-66
2021/10/12 09:39:02;;;;;;;23.58;12.98;;;;;;;;;;5059715;28;20033;-66
2021/10/12 09:41:28;;;;;;;26.88;12.05;;;;;;;;;;5087754;28;20534;-67
2021/10/12 09:44:09;;;;;;;28.85;11.23;;;;;;;;;;5090112;28;20056;-66
2021/10/12 09:46:34;;;;;;;20.10;10.90;;;;;;;;;;5073980;28;20603;-65
2021/10/12 09:49:10;;;;;;;26.60;11.73;;;;;;;;;;5070177;28;20111;-65
2021/10/12 09:51:35;;;;;;;32.25;12.60;;;;;;;;;;5083897;28;20024;-65
2021/10/12 09:54:00;;;;;;;19.43;11.83;;;;;;;;;;5088614;28;20487;-65
2021/10/12 09:56:25;;;;;;;20.67;11.47;;;;;;;;;;5062898;28;20355;-66
2021/10/12 09:58:51;;;;;;;23.85;11.98;;;;;;;;;;5050374;28;20283;-64
2021/10/12 10:01:17;;;;;;;22.35;11.23;;;;;;;;;;5050288;28;20028;-68
2021/10/12 10:03:43;;;;;;;22.75;12.80;;;;;;;;;;5050058;28;20419;-68
2021/10/12 10:06:09;;;;;;;27.95;13.93;;;;;;;;;;5080978;28;20021;-67
2021/10/12 10:08:36;;;;;;;21.85;11.45;;;;;;;;;;5087396;28;20020;-69
2021/10/12 10:11:02;;;;;;;24.30;12.77;;;;;;;;;;5070009;28;20120;-67
2021/10/12 10:13:28;;;;;;;27.60;11.73;;;;;;;;;;5069886;28;20491;-66
2021/10/12 10:15:54;;;;;;;28.70;12.38;;;;;;;;;;5070357;28;20074;-68
2021/10/12 10:18:20;;;;;;;20.58;11.13;;;;;;;;;;5070139;28;20480;-68
2021/10/12 10:20:49;;;;;;;24.27;11.43;;;;;;;;;;5070224;28;20078;-65
2021/10/12 10:23:35;;;;;;;19.77;11.35;;;;;;;;;;5086591;28;20024;-66
2021/10/12 10:26:20;;;;;;;17.55;11.02;;;;;;;;;;5067414;28;20021;-66
2021/10/12 10:28:45;;;;;;;24.00;11.98;;;;;;;;;;5055112;28;20523;-65
2021/10/12 10:31:10;;;;;;;20.58;11.95;;;;;;;;;;5090021;28;20059;-68
2021/10/12 10:33:37;;;;;;;27.42;11.85;;;;;;;;;;5083674;28;20092;-65
2021/10/12 10:36:06;;;;;;;27.23;13.07;;;;;;;;;;5070116;28;20016;-67
2021/10/12 10:38:31;;;;;;;24.52;13.25;;;;;;;;;;5079449;28;20055;-65
2021/10/12 10:41:03;;;;;;;24.03;13.43;;;;;;;;;;5089960;28;20051;-68
2021/10/12 10:43:46;;;;;;;29.58;14.13;;;;;;;;;;5069906;28;20368;-66
2021/10/12 10:46:32;;;;;;;24.90;14.73;;;;;;;;;;5069484;28;20021;-68
2021/10/12 10:49:08;;;;;;;31.75;14.57;;;;;;;;;;5070673;28;20027;-67
2021/10/12 10:51:46;;;;;;;31.00;16.20;;;;;;;;;;5069997;28;20060;-67
2021/10/12 10:54:31;;;;;;;36.88;16.02;;;;;;;;;;5070724;28;20049;-66
2021/10/12 10:57:15;;;;;;;30.13;15.80;;;;;;;;;;5073102;28;20025;-67
2021/10/12 10:59:40;;;;;;;38.90;17.65;;;;;;;;;;5073581;28;20028;-67
2021/10/12 11:02:24;;;;;;;44.13;18.15;;;;;;;;;;5073205;28;20017;-67
2021/10/12 11:04:49;;;;;;;34.88;17.75;;;;;;;;;;5092265;28;20020;-66
2021/10/12 11:07:18;;;;;;;39.97;18.40;;;;;;;;;;5082109;28;20365;-65
2021/10/12 11:09:44;;;;;;;40.58;18.88;;;;;;;;;;5073290;28;20020;-67
2021/10/12 11:12:16;;;;;;;55.92;23.60;;;;;;;;;;5073212;28;20147;-64
2021/10/12 11:14:41;;;;;;;38.75;20.35;;;;;;;;;;5073304;28;20031;-64
2021/10/12 11:17:09;;;;;;;35.00;21.17;;;;;;;;;;5073212;28;20768;-65
2021/10/12 11:19:51;;;;;;;39.25;19.75;;;;;;;;;;5074257;28;20371;-66
2021/10/12 11:22:16;;;;;;;35.72;19.45;;;;;;;;;;5072329;28;20070;-67
2021/10/12 11:24:43;;;;;;;36.77;20.33;;;;;;;;;;5073086;28;20444;-65
2021/10/12 11:27:09;;;;;;;38.97;20.02;;;;;;;;;;5072847;28;20263;-67
2021/10/12 11:29:34;;;;;;;41.78;19.75;;;;;;;;;;5073259;28;20039;-66
2021/10/12 11:32:02;;;;;;;34.83;18.30;;;;;;;;;;5072678;28;20082;-67
2021/10/12 11:34:27;;;;;;;37.67;19.63;;;;;;;;;;5072675;28;20267;-66
2021/10/12 11:36:52;;;;;;;37.85;18.05;;;;;;;;;;5074062;28;20016;-67
2021/10/12 11:39:20;;;;;;;42.60;18.60;;;;;;;;;;5084028;28;20478;-66
2021/10/12 11:41:45;;;;;;;31.58;17.15;;;;;;;;;;5072954;28;20308;-65
2021/10/12 11:44:16;;;;;;;34.80;18.30;;;;;;;;;;5072590;28;20473;-67
2021/10/12 11:46:41;;;;;;;;;;;;;;;;;;5073406;28;20247;-68
2021/10/12 11:49:10;;;;;;;45.30;19.35;;;;;;;;;;5072665;28;20002;-65
2021/10/12 11:51:35;;;;;;;34.65;19.45;;;;;;;;;;5084424;28;20071;-69
2021/10/12 11:54:00;;;;;;;37.10;21.35;;;;;;;;;;5092738;28;20048;-66
2021/10/12 11:56:26;;;;;;;36.67;18.33;;;;;;;;;;5093145;28;20098;-67
2021/10/12 11:58:54;;;;;;;34.78;19.23;;;;;;;;;;5092624;28;20046;-67
2021/10/12 12:01:26;;;;;;;35.75;18.02;;;;;;;;;;5086117;28;20111;-67
2021/10/12 12:03:51;;;;;;;39.70;17.38;;;;;;;;;;5071482;28;20020;-67
2021/10/12 12:06:20;;;;;;;37.05;17.98;;;;;;;;;;5087743;28;20024;-67
2021/10/12 12:08:45;;;;;;;36.22;18.88;;;;;;;;;;5092699;28;20054;-68
2021/10/12 12:11:11;;;;;;;37.97;21.92;;;;;;;;;;5092477;28;20027;-67
2021/10/12 12:13:36;;;;;;;39.90;21.67;;;;;;;;;;5092538;28;20028;-66
2021/10/12 12:16:01;;;;;;;39.15;22.02;;;;;;;;;;5092100;28;20099;-67
2021/10/12 12:18:30;;;;;;;36.15;20.38;;;;;;;;;;5089826;28;20027;-66
2021/10/12 12:20:56;;;;;;;45.58;22.05;;;;;;;;;;5090938;28;20027;-66
2021/10/12 12:23:34;;;;;;;46.42;22.10;;;;;;;;;;5091771;28;20018;-67
2021/10/12 12:25:59;;;;;;;39.95;19.75;;;;;;;;;;5073263;28;20012;-66
2021/10/12 12:28:24;;;;;;;38.92;19.85;;;;;;;;;;5071625;28;20476;-66
2021/10/12 12:30:50;;;;;;;35.17;19.75;;;;;;;;;;5053572;28;20054;-68
2021/10/12 12:33:15;;;;;;;43.85;20.65;;;;;;;;;;5058563;28;20079;-68
2021/10/12 12:35:41;;;;;;;36.63;18.88;;;;;;;;;;5092140;28;20023;-69
2021/10/12 12:38:07;;;;;;;28.95;16.60;;;;;;;;;;5091852;28;20105;-69
2021/10/12 12:40:34;;;;;;;33.05;17.10;;;;;;;;;;5091951;28;20085;-68
2021/10/12 12:43:15;;;;;;;26.33;14.38;;;;;;;;;;5087033;28;20066;-67
2021/10/12 12:45:40;;;;;;;39.63;18.10;;;;;;;;;;5071594;28;20031;-68
2021/10/12 12:48:05;;;;;;;24.80;14.30;;;;;;;;;;5079551;28;20020;-68
2021/10/12 12:50:32;;;;;;;35.78;14.52;;;;;;;;;;5091665;28;20254;-68
2021/10/12 12:52:57;;;;;;;26.85;13.40;;;;;;;;;;5091233;28;20094;-68
2021/10/12 12:55:31;;;;;;;22.17;12.60;;;;;;;;;;5091256;28;20123;-68
2021/10/12 12:57:57;;;;;;;21.83;11.13;;;;;;;;;;5085070;28;20070;-68
2021/10/12 13:00:22;;;;;;;21.38;12.95;;;;;;;;;;5071268;28;20050;-69
2021/10/12 13:02:54;;;;;;;15.82;10.18;;;;;;;;;;5082180;28;20069;-68
2021/10/12 13:05:19;;;;;;;20.13;10.75;;;;;;;;;;5076166;28;20095;-68
2021/10/12 13:07:45;;;;;;;19.17;9.88;;;;;;;;;;5071071;28;20457;-68
2021/10/12 13:10:10;;;;;;;13.75;9.85;;;;;;;;;;5070785;28;20075;-68
2021/10/12 13:12:36;;;;;;;13.07;7.50;;;;;;;;;;5070742;28;20012;-66
2021/10/12 13:15:02;;;;;;;17.55;6.90;;;;;;;;;;5070781;28;20032;-68
2021/10/12 13:17:27;;;;;;;14.00;7.05;;;;;;;;;;5086027;28;20046;-68
2021/10/12 13:19:53;;;;;;;14.67;7.20;;;;;;;;;;5074495;28;20032;-66
2021/10/12 13:22:19;;;;;;;12.30;7.63;;;;;;;;;;5070317;28;20350;-68
2021/10/12 13:24:44;;;;;;;15.65;6.88;;;;;;;;;;5070545;28;20027;-69
2021/10/12 13:27:09;;;;;;;13.38;7.13;;;;;;;;;;5070310;28;20016;-68
2021/10/12 13:29:35;;;;;;;13.27;6.95;;;;;;;;;;5070525;28;20390;-68
2021/10/12 13:32:03;;;;;;;11.40;6.85;;;;;;;;;;5069601;28;20074;-68
2021/10/12 13:34:28;;;;;;;8.98;6.40;;;;;;;;;;5070107;28;20016;-69
2021/10/12 13:36:54;;;;;;;12.57;6.13;;;;;;;;;;5069956;28;20465;-68
2021/10/12 13:39:19;;;;;;;12.05;6.45;;;;;;;;;;5069961;28;20043;-66
2021/10/12 13:41:44;;;;;;;14.93;6.80;;;;;;;;;;5070269;28;20025;-67
2021/10/12 13:44:09;;;;;;;7.85;5.30;;;;;;;;;;5069710;28;20329;-68
2021/10/12 13:46:34;;;;;;;13.77;6.60;;;;;;;;;;5089999;28;20107;-66
2021/10/12 13:49:00;;;;;;;14.27;6.57;;;;;;;;;;5069295;28;20054;-68
2021/10/12 13:51:25;;;;;;;18.83;7.88;;;;;;;;;;5068632;28;20517;-67
2021/10/12 13:53:50;;;;;;;11.07;6.28;;;;;;;;;;5081915;28;20031;-68
2021/10/12 13:56:15;;;;;;;14.33;5.97;;;;;;;;;;5088286;28;20028;-68
2021/10/12 13:58:40;;;;;;;9.38;5.18;;;;;;;;;;5072059;28;20294;-69
2021/10/12 14:01:06;;;;;;;9.60;5.47;;;;;;;;;;5090137;28;20695;-66
2021/10/12 14:03:32;;;;;;;9.63;5.25;;;;;;;;;;5089658;28;20343;-69
2021/10/12 14:05:57;;;;;;;9.25;5.05;;;;;;;;;;5071903;28;20503;-69
2021/10/12 14:08:23;;;;;;;12.57;5.67;;;;;;;;;;5069672;28;20021;-68
2021/10/12 14:10:48;;;;;;;13.67;5.97;;;;;;;;;;5068774;28;20262;-68
2021/10/12 14:13:13;;;;;;;16.25;5.07;;;;;;;;;;5073416;28;20272;-68
2021/10/12 14:15:38;;;;;;;10.23;4.63;;;;;;;;;;5068397;28;20051;-68